Time;durP1;ratioP1;P1;durP2;ratioP2;P2;SDS_P1;SDS_P2;PMS_P1;PMS_P2;Temp;Humidity;BMP_temperature;BMP_pressure;BME280_temperature;BME280_humidity;BME280_pressure;Samples;Min_cycle;Max_cycle;Signal;HPM_P1;HPM_P2
2022/12/29 00:08:17;;;;;;;2.08;1.05;;;10.80;99.90;;;;;;20882118;28;20033;-42
2022/12/29 00:18:18;;;;;;;1.52;0.82;;;10.90;99.90;;;;;;20897602;28;21179;-41
2022/12/29 00:59:28;;;;;;;1.63;0.68;;;11.20;99.90;;;;;;20863368;28;20037;-41
2022/12/29 01:19:48;;;;;;;1.65;0.70;;;11.00;99.90;;;;;;20857751;28;21037;-41
2022/12/29 01:29:49;;;;;;;1.58;0.77;;;10.80;99.90;;;;;;20865678;28;20516;-40
2022/12/29 01:39:50;;;;;;;1.50;0.28;;;10.60;99.90;;;;;;20863543;28;20465;-40
2022/12/29 01:49:56;;;;;;;1.50;0.60;;;10.60;99.90;;;;;;20862295;28;20040;-41
2022/12/29 02:00:03;;;;;;;1.38;0.93;;;10.60;99.90;;;;;;20859649;28;20088;-41
2022/12/29 02:10:05;;;;;;;0.70;0.47;;;10.60;99.90;;;;;;20852511;28;20635;-41
2022/12/29 02:20:37;;;;;;;1.15;0.47;;;10.70;99.90;;;;;;20853920;28;20076;-41
2022/12/29 02:31:02;;;;;;;0.75;0.30;;;10.80;99.90;;;;;;20856057;28;20883;-41
2022/12/29 02:41:18;;;;;;;0.90;0.30;;;10.80;99.90;;;;;;20857933;28;21703;-41
2022/12/29 02:51:26;;;;;;;1.27;0.22;;;10.70;99.90;;;;;;20860109;28;20099;-41
2022/12/29 03:02:16;;;;;;;1.17;0.40;;;10.70;99.90;;;;;;20855260;28;20542;-41
2022/12/29 03:23:07;;;;;;;1.42;0.30;;;10.80;99.90;;;;;;20847356;28;20776;-41
2022/12/29 03:33:13;;;;;;;1.58;1.00;;;10.60;99.90;;;;;;20854965;28;20072;-41
2022/12/29 03:43:15;;;;;;;1.90;0.35;;;10.50;99.90;;;;;;20857271;28;20566;-41
2022/12/29 03:53:16;;;;;;;0.77;0.40;;;10.40;99.90;;;;;;20857259;28;20134;-41
2022/12/29 04:03:17;;;;;;;0.70;0.20;;;10.40;99.90;;;;;;20859808;28;20505;-41
2022/12/29 04:13:18;;;;;;;1.50;0.77;;;10.40;99.90;;;;;;20859000;28;20397;-41
2022/12/29 04:23:19;;;;;;;1.45;0.90;;;10.40;99.90;;;;;;20856648;28;20617;-41
2022/12/29 04:33:20;;;;;;;0.73;0.22;;;10.40;99.90;;;;;;20855363;28;20500;-41
2022/12/29 04:43:22;;;;;;;2.95;1.15;;;10.40;99.90;;;;;;20850246;28;20130;-41
2022/12/29 04:53:23;;;;;;;4.25;1.30;;;10.50;99.90;;;;;;20853657;28;20133;-41
2022/12/29 05:03:24;;;;;;;2.22;0.95;;;10.40;99.90;;;;;;20847426;28;20079;-41
2022/12/29 05:13:25;;;;;;;3.78;0.65;;;10.20;99.90;;;;;;20847577;28;20067;-41
2022/12/29 05:23:26;;;;;;;2.47;0.52;;;10.00;99.90;;;;;;20839742;28;20079;-42
2022/12/29 05:33:27;;;;;;;5.43;1.95;;;9.90;99.90;;;;;;20847395;28;20063;-41
2022/12/29 05:43:28;;;;;;;3.53;1.15;;;9.70;99.90;;;;;;20842718;28;20133;-40
2022/12/29 05:53:29;;;;;;;4.63;1.83;;;9.60;99.90;;;;;;20858063;28;20079;-40
2022/12/29 06:03:30;;;;;;;3.63;1.15;;;9.50;99.90;;;;;;20845175;28;20783;-40
2022/12/29 06:13:31;;;;;;;2.58;0.90;;;9.70;99.90;;;;;;20860691;28;20452;-40
2022/12/29 06:23:32;;;;;;;5.15;2.35;;;9.80;99.90;;;;;;20855144;28;20056;-39
2022/12/29 06:33:33;;;;;;;2.15;0.82;;;9.60;99.90;;;;;;20866478;28;20203;-40
2022/12/29 06:43:37;;;;;;;3.95;1.52;;;9.20;99.90;;;;;;20864151;28;20202;-40
2022/12/29 06:53:38;;;;;;;2.67;0.98;;;9.30;99.90;;;;;;20865119;28;20488;-40
2022/12/29 07:03:42;;;;;;;2.97;1.33;;;9.40;99.90;;;;;;20865088;28;20710;-40
2022/12/29 07:13:43;;;;;;;9.18;1.52;;;9.50;99.90;;;;;;20856466;28;22306;-40
2022/12/29 07:23:44;;;;;;;3.53;0.65;;;9.50;99.90;;;;;;20854448;28;20095;-40
2022/12/29 07:33:46;;;;;;;2.88;1.13;;;9.30;99.90;;;;;;20850983;28;20378;-40
2022/12/29 07:43:48;;;;;;;4.05;1.45;;;9.10;99.90;;;;;;20857448;28;20668;-40
2022/12/29 07:53:49;;;;;;;2.25;0.70;;;9.20;99.90;;;;;;20852081;28;20067;-41
2022/12/29 08:03:50;;;;;;;2.40;0.70;;;9.20;99.90;;;;;;20849020;28;20074;-40
2022/12/29 08:13:51;;;;;;;6.28;1.77;;;9.40;99.90;;;;;;20854477;28;20087;-40
2022/12/29 08:23:52;;;;;;;6.60;1.98;;;9.60;99.90;;;;;;20852115;28;20061;-40
2022/12/29 08:33:53;;;;;;;9.20;1.45;;;9.80;99.90;;;;;;20846978;28;20107;-40
2022/12/29 08:43:54;;;;;;;1.90;0.82;;;9.80;99.90;;;;;;20851276;28;20045;-40
2022/12/29 08:53:55;;;;;;;2.28;0.70;;;9.70;99.90;;;;;;20868737;28;20142;-39
2022/12/29 09:03:56;;;;;;;41.65;3.35;;;9.50;99.90;;;;;;20779249;28;20551;-40
2022/12/29 09:13:57;;;;;;;2.53;1.00;;;9.50;99.90;;;;;;20846009;28;20068;-40
2022/12/29 09:23:59;;;;;;;8.55;1.73;;;9.30;99.90;;;;;;20830563;28;20831;-40
2022/12/29 09:34:00;;;;;;;2.20;0.80;;;9.00;99.90;;;;;;20852419;28;20123;-40
2022/12/29 09:44:30;;;;;;;5.07;1.50;;;9.00;99.90;;;;;;20820247;28;20128;-40
2022/12/29 09:55:15;;;;;;;8.73;1.83;;;8.90;99.90;;;;;;20839035;28;20852;-40
2022/12/29 10:05:57;;;;;;;3.72;1.52;;;8.80;99.90;;;;;;20813595;28;21858;-40
2022/12/29 10:16:11;;;;;;;2.83;0.90;;;8.90;99.90;;;;;;20831030;28;20881;-40
2022/12/29 10:26:20;;;;;;;5.22;1.85;;;9.00;99.90;;;;;;20832772;28;20819;-40
2022/12/29 10:36:33;;;;;;;11.00;2.28;;;9.10;99.90;;;;;;20830301;28;20116;-39
2022/12/29 10:46:36;;;;;;;10.98;3.35;;;9.10;99.90;;;;;;20845050;28;20688;-39
2022/12/29 10:56:53;;;;;;;4.47;1.85;;;9.30;99.90;;;;;;20817192;28;20097;-40
2022/12/29 11:06:54;;;;;;;5.23;2.27;;;9.50;99.90;;;;;;20851509;28;20176;-40
2022/12/29 11:17:01;;;;;;;8.77;2.85;;;9.60;99.90;;;;;;20857534;28;20553;-40
2022/12/29 11:27:20;;;;;;;5.22;1.90;;;10.00;99.90;;;;;;20892462;28;20037;-40
2022/12/29 11:37:29;;;;;;;7.15;2.33;;;10.00;99.90;;;;;;20895216;28;20880;-40
2022/12/29 11:47:32;;;;;;;8.07;2.38;;;10.10;99.90;;;;;;20882412;28;20120;-40
2022/12/29 11:57:34;;;;;;;5.60;1.85;;;10.30;99.90;;;;;;20838518;28;20508;-40
2022/12/29 12:07:45;;;;;;;5.07;3.10;;;10.30;99.90;;;;;;20827608;28;20148;-40
2022/12/29 12:17:46;;;;;;;10.82;3.17;;;10.10;99.90;;;;;;20848039;28;20122;-40
2022/12/29 12:28:02;;;;;;;8.25;1.48;;;10.00;99.90;;;;;;20852168;28;20036;-40
2022/12/29 12:38:21;;;;;;;3.40;1.48;;;9.90;99.90;;;;;;20867076;28;20122;-40
2022/12/29 12:48:37;;;;;;;4.63;2.35;;;10.00;99.90;;;;;;20871114;28;20862;-40
2022/12/29 12:59:17;;;;;;;8.20;3.17;;;10.20;99.90;;;;;;20880701;28;20465;-40
2022/12/29 13:09:40;;;;;;;7.53;2.05;;;10.30;99.90;;;;;;20866668;28;20184;-40
2022/12/29 13:19:55;;;;;;;3.13;1.10;;;10.40;99.90;;;;;;20881733;28;20084;-40
2022/12/29 13:30:04;;;;;;;2.60;1.00;;;10.40;99.90;;;;;;20873418;28;21619;-40
2022/12/29 13:40:15;;;;;;;3.63;1.50;;;10.30;99.90;;;;;;20859462;28;20083;-40
2022/12/29 13:50:22;;;;;;;4.80;1.42;;;10.30;99.90;;;;;;20819982;28;21597;-41
2022/12/29 14:00:30;;;;;;;4.13;1.73;;;10.20;99.90;;;;;;20853510;28;20068;-41
2022/12/29 14:10:45;;;;;;;4.78;1.95;;;10.20;99.90;;;;;;20825371;28;20076;-40
2022/12/29 14:20:53;;;;;;;5.82;0.90;;;9.70;99.90;;;;;;20863754;28;20448;-39
2022/12/29 14:30:59;;;;;;;9.65;1.23;;;9.30;99.90;;;;;;20852653;28;20695;-39
2022/12/29 14:41:38;;;;;;;2.65;0.82;;;8.80;99.90;;;;;;20855071;28;20136;-39
2022/12/29 14:51:39;;;;;;;3.65;2.10;;;8.40;99.90;;;;;;20842651;28;20918;-39
2022/12/29 15:01:48;;;;;;;1.98;0.63;;;8.50;99.90;;;;;;20835334;28;20159;-40
2022/12/29 15:12:01;;;;;;;2.38;0.70;;;8.60;99.90;;;;;;20828709;28;20132;-39
2022/12/29 15:22:02;;;;;;;2.92;1.15;;;8.80;99.90;;;;;;20851964;28;20127;-39
2022/12/29 15:32:15;;;;;;;10.85;1.98;;;8.80;99.90;;;;;;20832256;28;20285;-39
2022/12/29 15:42:45;;;;;;;1.90;1.10;;;8.80;99.90;;;;;;20848613;28;20171;-40
2022/12/29 15:52:47;;;;;;;3.70;1.35;;;9.00;99.90;;;;;;20858995;28;21887;-39
2022/12/29 16:02:48;;;;;;;7.88;1.90;;;9.10;99.90;;;;;;20862738;28;21420;-40
2022/12/29 16:12:49;;;;;;;16.35;7.38;;;9.10;99.90;;;;;;20864504;28;20336;-39
2022/12/29 16:22:57;;;;;;;2.17;1.27;;;9.10;99.90;;;;;;20856088;28;20087;-40
2022/12/29 16:33:03;;;;;;;2.08;1.00;;;9.00;99.90;;;;;;20852961;28;20151;-40
2022/12/29 16:43:04;;;;;;;4.00;0.82;;;8.90;99.90;;;;;;20856750;28;20083;-40
2022/12/29 16:53:16;;;;;;;5.82;0.95;;;8.80;99.90;;;;;;20857129;28;20123;-40
2022/12/29 17:03:17;;;;;;;1.58;0.60;;;8.70;99.90;;;;;;20875349;28;20475;-39
2022/12/29 17:13:18;;;;;;;8.13;2.25;;;8.50;99.90;;;;;;20881784;28;20465;-39
2022/12/29 17:23:19;;;;;;;4.78;1.98;;;8.40;99.90;;;;;;20866692;28;20898;-39
2022/12/29 17:33:20;;;;;;;8.10;3.30;;;8.30;99.90;;;;;;20876298;28;20532;-40
2022/12/29 17:43:21;;;;;;;8.10;1.48;;;8.20;99.90;;;;;;20868694;28;20102;-40
2022/12/29 17:53:28;;;;;;;4.18;1.42;;;8.10;99.90;;;;;;20862103;28;20090;-40
2022/12/29 18:03:34;;;;;;;2.92;1.17;;;8.10;99.90;;;;;;20813957;28;20483;-40
2022/12/29 18:13:35;;;;;;;3.30;1.35;;;8.10;99.90;;;;;;20884416;28;20041;-40
2022/12/29 18:23:36;;;;;;;2.60;0.93;;;8.00;99.90;;;;;;20875952;28;20083;-40
2022/12/29 18:33:37;;;;;;;7.93;2.25;;;7.90;99.90;;;;;;20857878;28;20112;-40
2022/12/29 18:43:38;;;;;;;5.90;1.42;;;8.00;99.90;;;;;;20852488;28;20189;-40
2022/12/29 18:53:39;;;;;;;7.60;2.25;;;7.90;99.90;;;;;;20825351;28;20056;-40
2022/12/29 19:03:40;;;;;;;2.80;1.20;;;7.80;99.90;;;;;;20838687;28;20051;-40
2022/12/29 19:13:41;;;;;;;5.60;1.42;;;7.90;99.90;;;;;;20859128;28;21583;-40
2022/12/29 19:23:42;;;;;;;5.22;1.92;;;7.80;99.90;;;;;;20845064;28;20141;-40
2022/12/29 19:33:43;;;;;;;6.20;1.80;;;7.80;99.90;;;;;;20861684;28;20094;-40
2022/12/29 19:43:44;;;;;;;4.32;1.30;;;7.80;99.90;;;;;;20853036;28;20037;-40
2022/12/29 19:53:45;;;;;;;4.85;2.08;;;7.80;99.90;;;;;;20868019;28;20071;-40
2022/12/29 20:03:47;;;;;;;5.18;1.27;;;7.80;99.90;;;;;;20857599;28;20170;-40
2022/12/29 20:13:51;;;;;;;18.63;2.60;;;7.70;99.90;;;;;;20865629;28;20068;-40
2022/12/29 20:23:53;;;;;;;5.47;1.65;;;7.60;99.90;;;;;;20866163;28;20714;-40
2022/12/29 20:33:54;;;;;;;5.05;1.70;;;7.40;99.90;;;;;;20864373;28;20433;-40
2022/12/29 20:43:56;;;;;;;5.57;1.38;;;7.50;99.90;;;;;;20866616;28;20075;-41
2022/12/29 20:53:57;;;;;;;6.30;2.38;;;7.60;99.90;;;;;;20864354;28;20071;-40
2022/12/29 21:03:58;;;;;;;7.10;2.17;;;7.60;99.90;;;;;;20863712;28;20068;-40
2022/12/29 21:13:59;;;;;;;8.20;2.13;;;7.70;99.90;;;;;;20863104;28;20065;-41
2022/12/29 21:24:04;;;;;;;20.30;3.47;;;7.60;99.90;;;;;;20857407;28;20158;-40
2022/12/29 21:34:06;;;;;;;6.80;1.80;;;7.50;99.90;;;;;;20863224;28;20143;-40
2022/12/29 22:15:08;;;;;;;5.95;1.27;;;7.20;99.90;;;;;;20862841;28;20029;-41
2022/12/29 22:25:09;;;;;;;5.57;1.40;;;7.10;99.90;;;;;;20871741;28;20040;-41
2022/12/29 22:35:11;;;;;;;4.00;1.33;;;7.10;99.90;;;;;;20874466;28;20083;-40
2022/12/29 22:45:12;;;;;;;14.30;1.95;;;7.00;99.90;;;;;;20900508;28;20132;-41
2022/12/29 22:55:13;;;;;;;4.45;1.65;;;6.90;99.90;;;;;;20887446;28;20040;-41
2022/12/29 23:05:14;;;;;;;5.30;1.92;;;6.80;99.90;;;;;;20881968;28;20040;-40
2022/12/29 23:15:15;;;;;;;6.30;2.70;;;6.80;99.90;;;;;;20885476;28;20315;-41
2022/12/29 23:25:16;;;;;;;16.65;2.05;;;6.60;99.90;;;;;;20889484;28;20137;-40
2022/12/29 23:35:17;;;;;;;7.03;1.67;;;6.50;99.90;;;;;;20895913;28;20029;-41
2022/12/29 23:45:19;;;;;;;3.70;1.02;;;6.40;99.90;;;;;;20878016;28;20033;-41
2022/12/29 23:55:20;;;;;;;3.90;1.83;;;6.40;99.90;;;;;;20887930;28;20257;-41
